Time;durP1;ratioP1;P1;durP2;ratioP2;P2;SDS_P1;SDS_P2;PMS_P1;PMS_P2;Temp;Humidity;BMP_temperature;BMP_pressure;BME280_temperature;BME280_humidity;BME280_pressure;Samples;Min_cycle;Max_cycle;Signal;HPM_P1;HPM_P2
2022/07/08 00:01:29;;;;;;;;;;;;;;;18.64;70.61;99544.19;5013807;28;811;-69
2022/07/08 00:03:55;;;;;;;;;;;;;;;18.68;70.35;99544.03;5013998;28;1885;-69
2022/07/08 00:06:23;;;;;;;;;;;;;;;18.66;70.29;99536.09;5014065;28;846;-69
2022/07/08 00:08:49;;;;;;;;;;;;;;;18.67;70.33;99545.28;5013678;28;810;-69
2022/07/08 00:11:20;;;;;;;;;;;;;;;18.68;69.98;99538.44;5013685;28;811;-68
2022/07/08 00:13:47;;;;;;;;;;;;;;;18.72;69.80;99534.25;4996232;28;1166;-69
2022/07/08 00:16:13;;;;;;;;;;;;;;;18.74;69.32;99539.38;5013805;28;899;-70
2022/07/08 00:18:39;;;;;;;;;;;;;;;18.76;69.10;99531.31;5013511;28;894;-70
2022/07/08 00:21:07;;;;;;;;;;;;;;;18.75;68.65;99529.72;5013515;28;815;-68
2022/07/08 00:23:33;;;;;;;;;;;;;;;18.79;68.26;99527.59;5013670;28;1945;-68
2022/07/08 00:25:59;;;;;;;;;;;;;;;18.77;68.17;99536.41;5013397;28;815;-68
2022/07/08 00:28:26;;;;;;;;;;;;;;;18.80;68.10;99528.34;5013362;28;867;-68
2022/07/08 00:43:04;;;;;;;;;;;;;;;18.81;67.89;99524.31;5012485;28;1953;-69
2022/07/08 00:45:32;;;;;;;;;;;;;;;18.82;67.52;99525.88;5013289;28;874;-69
2022/07/08 00:48:08;;;;;;;;;;;;;;;18.83;67.42;99521.84;4995336;28;1251;-71
2022/07/08 01:00:26;;;;;;;;;;;;;;;18.72;67.68;99519.47;5008190;28;1257;-69
2022/07/08 01:06:03;;;;;;;;;;;;;;;18.61;68.29;99513.56;5012770;28;661;-69
2022/07/08 01:08:33;;;;;;;;;;;;;;;18.56;68.45;99515.72;5012567;28;929;-70
2022/07/08 01:11:00;;;;;;;;;;;;;;;18.50;68.88;99509.19;4995023;28;1220;-69
2022/07/08 01:13:27;;;;;;;;;;;;;;;18.45;68.62;99512.59;5012613;28;811;-69
2022/07/08 01:19:13;;;;;;;;;;;;;;;18.36;68.81;99506.97;5011644;28;1004;-68
2022/07/08 01:21:40;;;;;;;;;;;;;;;18.32;69.00;99498.72;5012542;28;1906;-70
2022/07/08 01:24:07;;;;;;;;;;;;;;;18.33;69.12;99499.53;5012995;28;846;-68
2022/07/08 01:26:33;;;;;;;;;;;;;;;18.34;69.21;99506.66;5012359;28;831;-69
2022/07/08 01:29:00;;;;;;;;;;;;;;;18.38;68.87;99503.72;5012574;28;862;-70
2022/07/08 01:31:27;;;;;;;;;;;;;;;18.40;68.76;99504.03;5012495;28;935;-68
2022/07/08 01:33:57;;;;;;;;;;;;;;;18.43;68.69;99503.88;5012500;28;795;-70
2022/07/08 01:36:24;;;;;;;;;;;;;;;18.48;68.42;99505.31;4994573;28;1266;-71
2022/07/08 01:38:52;;;;;;;;;;;;;;;18.50;68.01;99506.41;5012390;28;803;-69
2022/07/08 01:41:22;;;;;;;;;;;;;;;18.51;67.74;99501.56;5012302;28;876;-68
2022/07/08 01:43:50;;;;;;;;;;;;;;;18.57;67.46;99500.47;4994493;28;1957;-69
2022/07/08 01:46:17;;;;;;;;;;;;;;;18.60;67.37;99498.00;5012028;28;906;-69
2022/07/08 01:48:45;;;;;;;;;;;;;;;18.65;67.02;99500.16;5011955;28;869;-70
2022/07/08 01:51:12;;;;;;;;;;;;;;;18.65;66.76;99498.16;5011986;28;803;-69
2022/07/08 01:53:38;;;;;;;;;;;;;;;18.67;66.93;99490.09;4994214;28;1521;-69
2022/07/08 01:56:05;;;;;;;;;;;;;;;18.65;66.99;99492.56;5011901;28;1011;-70
2022/07/08 01:58:32;;;;;;;;;;;;;;;18.61;67.17;99489.16;4994238;28;1189;-68
2022/07/08 02:00:58;;;;;;;;;;;;;;;18.57;67.25;99488.53;5011680;28;1493;-68
2022/07/08 02:03:25;;;;;;;;;;;;;;;18.56;67.26;99498.94;5012168;28;2051;-68
2022/07/08 02:05:51;;;;;;;;;;;;;;;18.57;67.41;99488.53;5011748;28;823;-68
2022/07/08 02:26:16;;;;;;;;;;;;;;;18.72;66.34;99500.66;5011996;28;629;-69
2022/07/08 02:28:43;;;;;;;;;;;;;;;18.76;66.43;99497.72;4994432;28;1246;-69
2022/07/08 02:31:09;;;;;;;;;;;;;;;18.72;66.51;99503.44;5011947;28;945;-68
2022/07/08 02:33:36;;;;;;;;;;;;;;;18.66;66.73;99499.72;5011638;28;863;-70
2022/07/08 02:36:03;;;;;;;;;;;;;;;18.69;66.75;99503.59;5011402;28;819;-70
2022/07/08 02:38:30;;;;;;;;;;;;;;;18.65;66.76;99503.75;5011546;28;874;-68
2022/07/08 02:40:58;;;;;;;;;;;;;;;18.63;66.86;99502.69;5011473;28;834;-69
2022/07/08 02:43:24;;;;;;;;;;;;;;;18.57;67.10;99503.28;5011459;28;1894;-73
2022/07/08 02:45:51;;;;;;;;;;;;;;;18.57;67.06;99503.28;4993707;28;1130;-71
2022/07/08 02:48:18;;;;;;;;;;;;;;;18.55;67.28;99505.00;5011177;28;961;-68
2022/07/08 02:50:45;;;;;;;;;;;;;;;18.55;67.11;99507.78;5011441;28;831;-69
2022/07/08 02:53:11;;;;;;;;;;;;;;;18.57;67.21;99510.91;4994030;28;1292;-70
2022/07/08 02:55:38;;;;;;;;;;;;;;;18.59;67.35;99521.66;5011361;28;866;-69
2022/07/08 02:58:04;;;;;;;;;;;;;;;18.62;67.29;99520.69;5011374;28;839;-69
2022/07/08 03:00:31;;;;;;;;;;;;;;;18.66;67.22;99532.53;5011189;28;1279;-69
2022/07/08 03:02:58;;;;;;;;;;;;;;;18.69;67.02;99524.00;5011175;28;1972;-69
2022/07/08 03:05:26;;;;;;;;;;;;;;;18.75;66.98;99524.13;5012111;28;850;-70
2022/07/08 03:07:53;;;;;;;;;;;;;;;18.81;66.83;99522.31;5014814;28;890;-70
2022/07/08 03:13:22;;;;;;;;;;;;;;;18.95;66.35;99523.72;5014925;28;688;-70
2022/07/08 03:15:48;;;;;;;;;;;;;;;18.98;66.15;99526.34;5014702;28;854;-69
2022/07/08 03:18:14;;;;;;;;;;;;;;;19.04;66.09;99528.53;5014967;28;815;-69
2022/07/08 03:20:41;;;;;;;;;;;;;;;19.09;65.91;99528.66;5015236;28;780;-68
2022/07/08 03:23:08;;;;;;;;;;;;;;;19.12;65.91;99536.16;5015061;28;1953;-71
2022/07/08 03:25:37;;;;;;;;;;;;;;;19.20;65.50;99535.81;5014636;28;898;-69
2022/07/08 03:28:06;;;;;;;;;;;;;;;19.23;65.14;99535.69;5014851;28;823;-70
2022/07/08 03:30:32;;;;;;;;;;;;;;;19.25;64.74;99544.41;5014584;28;901;-71
2022/07/08 03:33:04;;;;;;;;;;;;;;;19.30;64.63;99528.97;5014460;28;906;-70
2022/07/08 03:35:29;;;;;;;;;;;;;;;19.27;64.94;99536.28;5014223;28;866;-71
2022/07/08 03:37:55;;;;;;;;;;;;;;;19.24;64.68;99537.22;5014470;28;929;-72
2022/07/08 03:43:06;;;;;;;;;;;;;;;19.17;65.62;99540.34;5014257;28;1882;-70
2022/07/08 03:45:32;;;;;;;;;;;;;;;19.13;66.01;99542.53;5014171;28;870;-70
2022/07/08 03:48:00;;;;;;;;;;;;;;;19.09;66.43;99541.91;5014341;28;862;-70
2022/07/08 03:50:26;;;;;;;;;;;;;;;19.03;66.62;99541.75;5014225;28;893;-69
2022/07/08 03:52:53;;;;;;;;;;;;;;;19.03;66.70;99550.13;5014304;28;838;-67
2022/07/08 03:55:23;;;;;;;;;;;;;;;19.06;66.78;99554.81;5014123;28;886;-74
2022/07/08 03:57:49;;;;;;;;;;;;;;;19.08;66.64;99557.16;4996327;28;740;-69
2022/07/08 04:00:16;;;;;;;;;;;;;;;19.15;65.94;99565.25;5013881;28;870;-70
2022/07/08 04:02:46;;;;;;;;;;;;;;;19.28;65.31;99563.06;5013708;28;1902;-68
2022/07/08 04:05:16;;;;;;;;;;;;;;;19.44;65.20;99552.75;4996158;28;859;-72
2022/07/08 04:07:42;;;;;;;;;;;;;;;19.59;64.41;99551.66;5013997;28;906;-69
2022/07/08 04:10:09;;;;;;;;;;;;;;;19.71;63.66;99541.50;4996512;28;1256;-69
2022/07/08 04:12:35;;;;;;;;;;;;;;;19.77;63.38;99548.03;4995723;28;1434;-70
2022/07/08 04:15:02;;;;;;;;;;;;;;;19.76;63.51;99549.31;5013662;28;870;-69
2022/07/08 04:17:28;;;;;;;;;;;;;;;19.76;63.60;99540.13;5013473;28;819;-69
2022/07/08 04:19:54;;;;;;;;;;;;;;;19.72;63.33;99547.91;4995740;28;1466;-71
2022/07/08 04:22:21;;;;;;;;;;;;;;;19.65;63.61;99551.81;5013822;28;1898;-71
2022/07/08 04:24:57;;;;;;;;;;;;;;;19.51;64.03;99544.81;5013566;28;872;-71
2022/07/08 04:27:23;;;;;;;;;;;;;;;19.35;64.95;99556.34;5013437;28;819;-70
2022/07/08 04:29:50;;;;;;;;;;;;;;;19.24;65.70;99559.63;4995678;28;831;-69
2022/07/08 04:32:20;;;;;;;;;;;;;;;19.12;66.12;99552.97;5013600;28;1007;-71
2022/07/08 04:34:47;;;;;;;;;;;;;;;19.05;66.60;99552.47;5013295;28;876;-71
2022/07/08 04:37:14;;;;;;;;;;;;;;;19.00;66.94;99550.31;4995581;28;1319;-71
2022/07/08 04:49:13;;;;;;;;;;;;;;;20.02;63.54;99556.53;5013371;28;618;-68
2022/07/08 04:51:39;;;;;;;;;;;;;;;20.16;62.78;99547.41;5013083;28;1010;-67
2022/07/08 04:54:21;;;;;;;;;;;;;;;20.23;62.16;99541.47;5012948;28;838;-76
2022/07/08 04:56:50;;;;;;;;;;;;;;;20.30;61.69;99545.97;4995063;28;1197;-70
2022/07/08 04:59:16;;;;;;;;;;;;;;;20.37;61.58;99559.63;5012791;28;866;-68
2022/07/08 05:01:42;;;;;;;;;;;;;;;20.45;60.73;99544.00;5013070;28;1327;-70
2022/07/08 05:04:11;;;;;;;;;;;;;;;20.51;59.77;99556.13;5012890;28;1975;-75
2022/07/08 05:06:38;;;;;;;;;;;;;;;20.59;59.82;99556.59;5012705;28;854;-69
2022/07/08 05:09:04;;;;;;;;;;;;;;;20.62;59.11;99552.03;5012633;28;847;-69
2022/07/08 05:11:35;;;;;;;;;;;;;;;20.69;59.02;99543.25;5012687;28;878;-71
2022/07/08 05:26:26;;;;;;;;;;;;;;;21.27;57.02;99569.16;5012768;28;807;-69
2022/07/08 05:28:54;;;;;;;;;;;;;;;21.34;55.82;99558.34;5012069;28;827;-72
2022/07/08 05:31:20;;;;;;;;;;;;;;;21.48;56.08;99565.25;5012212;28;1034;-68
2022/07/08 05:36:57;;;;;;;;;;;;;;;21.87;54.01;99553.13;5012572;28;665;-71
2022/07/08 05:39:29;;;;;;;;;;;;;;;21.85;53.85;99547.19;5012197;28;881;-72
2022/07/08 05:41:56;;;;;;;;;;;;;;;22.04;54.30;99557.00;5010969;28;1890;-69
2022/07/08 05:47:32;;;;;;;;;;;;;;;22.61;52.58;99564.22;5012139;28;680;-69
2022/07/08 05:50:00;;;;;;;;;;;;;;;22.79;52.23;99568.81;5012162;28;886;-73
2022/07/08 06:04:50;;;;;;;;;;;;;;;22.93;51.34;99570.00;5010808;28;1413;-69
2022/07/08 06:07:19;;;;;;;;;;;;;;;22.84;51.84;99576.56;5012105;28;831;-70
2022/07/08 06:09:46;;;;;;;;;;;;;;;22.48;53.15;99575.81;5011859;28;918;-70
2022/07/08 06:12:13;;;;;;;;;;;;;;;22.60;52.55;99566.28;5011636;28;847;-70
2022/07/08 06:26:52;;;;;;;;;;;;;;;25.17;45.76;99564.56;5011922;28;633;-69
2022/07/08 06:29:21;;;;;;;;;;;;;;;25.36;45.42;99561.31;4994078;28;1157;-74
2022/07/08 06:31:51;;;;;;;;;;;;;;;25.56;44.77;99563.94;5011571;28;1028;-72
2022/07/08 06:46:28;;;;;;;;;;;;;;;26.65;42.51;99555.63;5016209;28;838;-74
2022/07/08 06:48:58;;;;;;;;;;;;;;;26.73;42.11;99555.84;5015464;28;838;-73
2022/07/08 06:54:35;;;;;;;;;;;;;;;27.43;42.56;99547.28;5015165;28;625;-69
2022/07/08 06:57:16;;;;;;;;;;;;;;;27.73;40.59;99543.69;5015187;28;850;-72
2022/07/08 06:59:42;;;;;;;;;;;;;;;27.61;41.46;99551.50;5012637;28;1159;-71
2022/07/08 07:02:15;;;;;;;;;;;;;;;27.44;41.20;99548.78;5014876;28;1957;-73
2022/07/08 07:04:44;;;;;;;;;;;;;;;27.64;40.92;99550.47;5014859;28;1240;-69
2022/07/08 07:07:13;;;;;;;;;;;;;;;27.90;40.90;99558.53;4997553;28;1356;-69
2022/07/08 07:09:52;;;;;;;;;;;;;;;28.57;39.82;99556.38;5014985;28;885;-74
2022/07/08 07:12:19;;;;;;;;;;;;;;;28.95;39.63;99551.50;4996534;28;1209;-69
2022/07/08 07:14:49;;;;;;;;;;;;;;;28.98;38.88;99547.59;5014788;28;823;-69
2022/07/08 07:17:20;;;;;;;;;;;;;;;28.96;38.38;99564.44;5015706;28;1192;-70
2022/07/08 07:19:46;;;;;;;;;;;;;;;28.92;38.55;99556.19;4997200;28;1153;-71
2022/07/08 07:22:13;;;;;;;;;;;;;;;28.62;39.50;99558.38;4996992;28;1969;-71
2022/07/08 07:24:42;;;;;;;;;;;;;;;28.86;38.84;99551.88;5014821;28;838;-69
2022/07/08 07:27:10;;;;;;;;;;;;;;;28.83;38.98;99552.97;5014647;28;815;-71
2022/07/08 07:29:36;;;;;;;;;;;;;;;28.99;39.77;99546.28;5014558;28;860;-71
2022/07/08 07:32:03;;;;;;;;;;;;;;;29.32;39.13;99538.63;5014559;28;932;-74
2022/07/08 07:34:35;;;;;;;;;;;;;;;29.73;38.29;99543.19;4996853;28;1342;-73
2022/07/08 10:33:02;;;;;;;;;;;;;;;28.96;41.29;99507.53;5026490;23;1501;-63
2022/07/08 10:35:28;;;;;;;;;;;;;;;28.98;41.71;99509.84;5018115;28;862;-63
2022/07/08 10:38:00;;;;;;;;;;;;;;;29.24;41.07;99512.09;5018091;28;825;-63
2022/07/08 10:52:42;;;;;;;;;;;;;;;29.70;39.78;99493.00;5018576;28;665;-63
2022/07/08 10:55:14;;;;;;;;;;;;;;;30.06;39.71;99501.19;5017940;28;791;-62
2022/07/08 10:58:01;;;;;;;;;;;;;;;30.00;38.74;99484.19;5017866;28;1509;-61
2022/07/08 11:00:27;;;;;;;;;;;;;;;30.38;39.05;99486.84;5017845;28;870;-62
2022/07/08 11:15:06;;;;;;;;;;;;;;;30.89;37.42;99465.84;5018233;28;597;-61
2022/07/08 11:17:34;;;;;;;;;;;;;;;31.11;37.61;99464.56;5017825;28;863;-62
2022/07/08 11:20:04;;;;;;;;;;;;;;;31.50;37.53;99460.78;5000055;28;1189;-61
2022/07/08 11:22:35;;;;;;;;;;;;;;;31.71;37.34;99480.78;5017554;28;1898;-61
2022/07/08 11:25:02;;;;;;;;;;;;;;;31.92;36.63;99479.97;5017718;28;897;-61
2022/07/08 11:27:31;;;;;;;;;;;;;;;32.00;36.48;99466.53;5014117;28;859;-61
2022/07/08 11:29:57;;;;;;;;;;;;;;;32.36;35.97;99460.09;5014373;28;919;-61
2022/07/08 11:32:25;;;;;;;;;;;;;;;32.65;36.22;99469.41;5014460;28;846;-61
2022/07/08 11:34:51;;;;;;;;;;;;;;;32.59;35.65;99465.94;5014282;28;1369;-61
2022/07/08 11:37:18;;;;;;;;;;;;;;;32.79;35.35;99457.81;5014592;28;850;-61
2022/07/08 11:39:45;;;;;;;;;;;;;;;32.78;34.80;99459.91;5014723;28;971;-61
2022/07/08 11:42:20;;;;;;;;;;;;;;;33.05;34.69;99463.25;5014244;28;1953;-61
2022/07/08 11:44:47;;;;;;;;;;;;;;;32.87;34.45;99455.75;5014235;28;906;-61
2022/07/08 11:47:18;;;;;;;;;;;;;;;32.48;34.76;99440.50;5014351;28;898;-61
2022/07/08 11:59:29;;;;;;;;;;;;;;;33.67;33.40;99435.50;5014295;28;696;-61
2022/07/08 12:01:58;;;;;;;;;;;;;;;34.48;32.34;99434.94;5014082;28;1026;-61
2022/07/08 12:04:25;;;;;;;;;;;;;;;34.92;31.58;99428.81;5014217;28;1894;-61
2022/07/08 12:06:55;;;;;;;;;;;;;;;35.21;31.71;99426.38;5014326;28;830;-62
2022/07/08 12:09:23;;;;;;;;;;;;;;;35.01;31.07;99422.44;5013784;28;851;-61
2022/07/08 12:11:51;;;;;;;;;;;;;;;35.20;30.70;99421.19;5013887;28;811;-61
2022/07/08 12:14:19;;;;;;;;;;;;;;;35.38;30.29;99420.69;4996171;28;1196;-61
2022/07/08 12:28:57;;;;;;;;;;;;;;;36.51;29.56;99417.81;5013713;28;609;-62
2022/07/08 12:44:32;;;;;;;;;;;;;;;35.99;29.40;99409.97;5009530;28;1882;-62
2022/07/08 12:46:59;;;;;;;;;;;;;;;35.84;29.06;99408.03;5013090;28;819;-62
2022/07/08 12:49:27;;;;;;;;;;;;;;;36.06;29.43;99405.50;5013116;28;854;-62
2022/07/08 12:51:54;;;;;;;;;;;;;;;36.30;28.89;99404.69;5013269;28;846;-62
2022/07/08 12:54:31;;;;;;;;;;;;;;;36.26;29.08;99397.81;5012986;28;861;-62
2022/07/08 12:56:59;;;;;;;;;;;;;;;36.98;28.46;99392.84;5013028;28;823;-62
2022/07/08 12:59:26;;;;;;;;;;;;;;;36.96;27.95;99395.56;5012781;28;807;-62
2022/07/08 13:14:04;;;;;;;;;;;;;;;34.66;31.88;99387.06;5013174;28;602;-62
2022/07/08 13:19:32;;;;;;;;;;;;;;;35.44;30.04;99385.19;5012559;28;677;-62
2022/07/08 13:22:00;;;;;;;;;;;;;;;35.03;30.13;99373.03;5012582;28;819;-62
2022/07/08 13:24:27;;;;;;;;;;;;;;;35.01;30.17;99367.13;5012358;28;1957;-62
2022/07/08 13:26:54;;;;;;;;;;;;;;;35.31;30.37;99355.41;5012465;28;792;-62
2022/07/08 13:29:21;;;;;;;;;;;;;;;35.69;30.03;99359.31;5012328;28;910;-63
2022/07/08 13:35:13;;;;;;;;;;;;;;;34.70;31.26;99361.59;5012300;28;586;-63
2022/07/08 13:37:42;;;;;;;;;;;;;;;33.99;32.79;99361.66;5012228;28;846;-62
2022/07/08 13:40:24;;;;;;;;;;;;;;;33.61;33.33;99351.84;5012200;28;850;-62
2022/07/08 13:42:51;;;;;;;;;;;;;;;33.56;33.54;99347.81;4994550;28;1951;-62
2022/07/08 13:45:17;;;;;;;;;;;;;;;33.50;33.63;99350.09;5012021;28;1222;-62
2022/07/08 13:47:44;;;;;;;;;;;;;;;33.68;33.70;99358.88;5012104;28;890;-62
2022/07/08 13:50:10;;;;;;;;;;;;;;;34.36;33.02;99366.53;5011730;28;819;-62
2022/07/08 13:52:37;;;;;;;;;;;;;;;34.73;32.99;99374.78;5012012;28;799;-62
2022/07/08 13:55:04;;;;;;;;;;;;;;;34.39;33.04;99370.31;5012337;28;869;-62
2022/07/08 13:57:31;;;;;;;;;;;;;;;33.95;33.02;99362.84;5011855;28;835;-62
2022/07/08 13:59:58;;;;;;;;;;;;;;;33.42;33.47;99360.78;5011909;28;827;-62
2022/07/08 14:02:24;;;;;;;;;;;;;;;33.32;33.71;99366.31;5011847;28;1914;-62
2022/07/08 14:04:51;;;;;;;;;;;;;;;33.19;33.81;99366.53;5012100;28;855;-62
2022/07/08 14:07:18;;;;;;;;;;;;;;;33.27;34.00;99373.03;5012178;28;811;-62
2022/07/08 14:09:45;;;;;;;;;;;;;;;33.88;34.05;99365.72;5011774;28;901;-62
2022/07/08 14:12:12;;;;;;;;;;;;;;;34.29;33.35;99367.34;5011901;28;870;-62
2022/07/08 14:14:39;;;;;;;;;;;;;;;34.68;32.82;99367.16;5011751;28;897;-62
2022/07/08 14:17:05;;;;;;;;;;;;;;;34.54;32.69;99373.13;5011887;28;805;-62
2022/07/08 14:19:32;;;;;;;;;;;;;;;33.99;32.65;99362.41;5011885;28;818;-62
2022/07/08 14:21:59;;;;;;;;;;;;;;;32.89;34.25;99361.50;5011908;28;810;-62
2022/07/08 14:24:25;;;;;;;;;;;;;;;32.07;35.38;99362.16;5011910;28;1886;-62
2022/07/08 14:29:54;;;;;;;;;;;;;;;31.46;36.46;99362.53;5011665;28;909;-62
2022/07/08 14:32:21;;;;;;;;;;;;;;;31.40;36.74;99356.94;5011766;28;807;-62
2022/07/08 14:34:49;;;;;;;;;;;;;;;31.43;37.28;99353.00;5011617;28;823;-61
2022/07/08 14:37:15;;;;;;;;;;;;;;;31.48;37.19;99354.16;5011636;28;815;-62
2022/07/08 14:39:42;;;;;;;;;;;;;;;31.62;37.55;99357.69;5011520;28;866;-62
2022/07/08 14:42:08;;;;;;;;;;;;;;;31.57;37.35;99359.38;5011582;28;893;-61
2022/07/08 14:44:35;;;;;;;;;;;;;;;31.19;38.09;99356.19;5011259;28;1213;-62
2022/07/08 14:47:01;;;;;;;;;;;;;;;31.07;40.82;99359.34;5011503;28;869;-62
2022/07/08 14:49:29;;;;;;;;;;;;;;;30.72;42.93;99355.72;5011799;28;795;-62
2022/07/08 14:51:58;;;;;;;;;;;;;;;30.59;44.86;99346.47;5011504;28;838;-62
2022/07/08 14:54:25;;;;;;;;;;;;;;;30.42;45.42;99344.75;5011455;28;862;-63
2022/07/08 14:56:50;;;;;;;;;;;;;;;30.48;45.41;99341.78;5011237;28;811;-62
2022/07/08 14:59:17;;;;;;;;;;;;;;;30.29;45.32;99354.09;5011331;28;878;-62
2022/07/08 15:13:55;;;;;;;;;;;;;;;27.69;50.52;99357.38;5015242;28;605;-63
2022/07/08 15:16:21;;;;;;;;;;;;;;;28.06;49.65;99360.88;4997290;28;1501;-63
2022/07/08 15:18:49;;;;;;;;;;;;;;;28.26;48.71;99363.19;5014851;28;815;-63
2022/07/08 15:21:15;;;;;;;;;;;;;;;28.22;48.08;99351.34;5014752;28;795;-63
2022/07/08 15:23:42;;;;;;;;;;;;;;;27.96;48.70;99351.94;5014612;28;1981;-63
2022/07/08 15:26:09;;;;;;;;;;;;;;;27.84;49.02;99353.34;5014589;28;818;-63
2022/07/08 15:28:36;;;;;;;;;;;;;;;28.09;48.88;99349.19;5014632;28;807;-64
2022/07/08 15:31:04;;;;;;;;;;;;;;;28.45;48.48;99339.69;5014912;28;997;-65
2022/07/08 15:33:31;;;;;;;;;;;;;;;28.59;48.72;99347.03;4996995;28;1339;-65
2022/07/08 15:35:58;;;;;;;;;;;;;;;28.23;49.24;99349.28;5014429;28;798;-64
2022/07/08 15:38:24;;;;;;;;;;;;;;;27.74;50.82;99352.97;5014622;28;823;-64
2022/07/08 15:40:51;;;;;;;;;;;;;;;27.31;51.67;99352.88;4996793;28;1204;-64
2022/07/08 15:43:18;;;;;;;;;;;;;;;27.01;52.79;99357.25;5014324;28;1953;-64
2022/07/08 15:45:45;;;;;;;;;;;;;;;26.82;53.61;99357.13;5014129;28;1272;-63
2022/07/08 15:48:12;;;;;;;;;;;;;;;27.02;53.92;99355.94;4996627;28;1224;-63
2022/07/08 15:50:39;;;;;;;;;;;;;;;27.93;52.48;99352.25;5014314;28;849;-64
2022/07/08 15:53:05;;;;;;;;;;;;;;;28.53;50.84;99343.50;5014202;28;811;-63
2022/07/08 15:55:31;;;;;;;;;;;;;;;28.29;50.52;99342.25;5014035;28;910;-64
2022/07/08 15:57:58;;;;;;;;;;;;;;;28.36;50.80;99343.69;5014126;28;885;-65
2022/07/08 16:00:25;;;;;;;;;;;;;;;29.25;49.06;99343.66;5014012;28;850;-64
2022/07/08 16:02:52;;;;;;;;;;;;;;;30.09;46.77;99329.91;5013911;28;1914;-64
2022/07/08 16:05:19;;;;;;;;;;;;;;;29.91;46.42;99331.56;5013928;28;847;-64
2022/07/08 16:07:45;;;;;;;;;;;;;;;29.85;46.32;99333.75;5013886;28;890;-64
2022/07/08 16:10:12;;;;;;;;;;;;;;;29.55;46.79;99333.28;5013941;28;830;-64
2022/07/08 16:12:39;;;;;;;;;;;;;;;28.85;48.59;99334.97;4995939;28;1334;-64
2022/07/08 16:15:06;;;;;;;;;;;;;;;27.93;50.16;99333.16;5013815;28;810;-64
2022/07/08 16:17:33;;;;;;;;;;;;;;;27.19;52.47;99329.50;5013726;28;811;-64
2022/07/08 16:19:59;;;;;;;;;;;;;;;26.64;54.04;99335.84;4996014;28;1268;-64
2022/07/08 16:22:28;;;;;;;;;;;;;;;26.17;55.38;99335.06;5013630;28;1956;-64
2022/07/08 16:24:55;;;;;;;;;;;;;;;25.83;56.48;99335.19;5013535;28;866;-64
2022/07/08 16:27:21;;;;;;;;;;;;;;;25.62;57.68;99334.72;5013516;28;862;-64
2022/07/08 16:29:48;;;;;;;;;;;;;;;25.41;58.43;99334.25;5013468;28;807;-64
2022/07/08 16:32:14;;;;;;;;;;;;;;;25.23;59.17;99332.75;4995973;28;1003;-64
2022/07/08 16:34:41;;;;;;;;;;;;;;;25.27;59.46;99330.44;5013697;28;858;-64
2022/07/08 16:37:07;;;;;;;;;;;;;;;25.40;59.68;99335.56;5013317;28;850;-64
2022/07/08 16:39:34;;;;;;;;;;;;;;;25.43;59.85;99326.00;5013382;28;850;-64
2022/07/08 16:42:01;;;;;;;;;;;;;;;25.31;60.34;99321.69;5013326;28;871;-63
2022/07/08 16:44:29;;;;;;;;;;;;;;;25.14;61.25;99319.63;5012989;28;1878;-63
2022/07/08 16:46:56;;;;;;;;;;;;;;;24.90;61.87;99320.16;5013176;28;806;-63
2022/07/08 16:49:23;;;;;;;;;;;;;;;24.69;62.84;99313.97;5013463;28;783;-63
2022/07/08 16:51:49;;;;;;;;;;;;;;;24.51;63.06;99315.22;5013064;28;831;-62
2022/07/08 16:54:16;;;;;;;;;;;;;;;24.39;62.86;99322.09;5013157;28;791;-62
2022/07/08 16:56:42;;;;;;;;;;;;;;;24.33;62.43;99321.31;5012823;28;799;-62
2022/07/08 16:59:09;;;;;;;;;;;;;;;24.29;62.88;99315.16;5012988;28;827;-62
2022/07/08 17:01:36;;;;;;;;;;;;;;;24.24;62.58;99314.63;5012842;28;890;-62
2022/07/08 17:04:03;;;;;;;;;;;;;;;24.24;62.63;99316.69;5012841;28;1903;-62
2022/07/08 17:06:30;;;;;;;;;;;;;;;24.21;63.14;99326.16;5012807;28;827;-62
2022/07/08 17:08:57;;;;;;;;;;;;;;;24.15;63.29;99331.78;5012764;28;826;-62
2022/07/08 17:11:24;;;;;;;;;;;;;;;24.11;63.69;99328.44;5013076;28;843;-63
2022/07/08 17:13:51;;;;;;;;;;;;;;;24.03;64.09;99339.44;5012649;28;843;-62
2022/07/08 17:16:17;;;;;;;;;;;;;;;23.97;64.48;99340.69;5012697;28;834;-62
2022/07/08 17:18:44;;;;;;;;;;;;;;;23.83;64.66;99346.03;5012626;28;890;-62
2022/07/08 17:21:12;;;;;;;;;;;;;;;23.72;65.42;99343.09;5012809;28;845;-62
2022/07/08 17:23:39;;;;;;;;;;;;;;;23.59;65.74;99351.25;4994285;28;1943;-62
2022/07/08 17:26:06;;;;;;;;;;;;;;;23.44;66.11;99357.03;5012162;28;811;-62
2022/07/08 17:28:32;;;;;;;;;;;;;;;23.31;66.35;99363.09;5012502;28;855;-62
2022/07/08 17:30:58;;;;;;;;;;;;;;;23.16;66.73;99360.44;5012788;28;947;-62
2022/07/08 17:33:25;;;;;;;;;;;;;;;23.02;66.93;99361.34;5012543;28;874;-62
2022/07/08 17:35:51;;;;;;;;;;;;;;;22.87;67.44;99367.06;5013039;28;835;-62
2022/07/08 17:38:18;;;;;;;;;;;;;;;22.72;67.99;99364.34;5012630;28;771;-62
2022/07/08 17:40:44;;;;;;;;;;;;;;;22.57;68.12;99360.88;5012581;28;906;-62
2022/07/08 17:43:14;;;;;;;;;;;;;;;22.39;68.90;99362.75;5012068;28;1878;-62
2022/07/08 17:45:40;;;;;;;;;;;;;;;22.22;69.60;99361.75;5012176;28;1412;-62
2022/07/08 17:48:07;;;;;;;;;;;;;;;22.01;70.62;99358.94;5013031;28;803;-62
2022/07/08 17:50:33;;;;;;;;;;;;;;;21.79;71.66;99355.84;5012542;28;803;-62
2022/07/08 17:53:00;;;;;;;;;;;;;;;21.61;72.29;99362.50;5012737;28;811;-62
2022/07/08 17:55:27;;;;;;;;;;;;;;;21.47;72.76;99358.47;5012295;28;776;-62
2022/07/08 17:57:54;;;;;;;;;;;;;;;21.35;73.29;99354.69;5012675;28;768;-62
2022/07/08 18:00:21;;;;;;;;;;;;;;;21.24;73.56;99365.75;5012000;28;886;-62
2022/07/08 18:02:47;;;;;;;;;;;;;;;21.15;74.13;99352.59;5012499;28;1904;-62
2022/07/08 18:05:14;;;;;;;;;;;;;;;21.07;74.39;99354.25;5012092;28;815;-62
2022/07/08 18:07:41;;;;;;;;;;;;;;;21.01;74.34;99356.94;5012457;28;799;-62
2022/07/08 18:10:08;;;;;;;;;;;;;;;20.98;74.38;99360.75;4994263;28;1228;-62
2022/07/08 18:12:34;;;;;;;;;;;;;;;20.93;74.27;99355.03;5011779;28;913;-62
2022/07/08 18:15:01;;;;;;;;;;;;;;;20.86;74.45;99352.59;5011774;28;827;-62
2022/07/08 18:17:28;;;;;;;;;;;;;;;20.78;74.63;99355.03;5011700;28;818;-62
2022/07/08 18:19:54;;;;;;;;;;;;;;;20.70;74.66;99362.31;5012090;28;794;-62
2022/07/08 18:22:20;;;;;;;;;;;;;;;20.63;75.11;99365.47;5011601;28;1878;-62
2022/07/08 18:24:47;;;;;;;;;;;;;;;20.57;75.14;99365.34;5011746;28;787;-62
2022/07/08 18:27:14;;;;;;;;;;;;;;;20.56;75.28;99375.03;5011755;28;818;-62
2022/07/08 18:29:41;;;;;;;;;;;;;;;20.55;75.04;99367.88;5011897;28;795;-63
2022/07/08 18:32:08;;;;;;;;;;;;;;;20.54;75.14;99374.72;5012063;28;979;-62
2022/07/08 18:34:35;;;;;;;;;;;;;;;20.50;75.04;99376.94;4993949;28;1283;-62
2022/07/08 18:37:02;;;;;;;;;;;;;;;20.45;75.07;99378.38;5015208;28;874;-62
2022/07/08 18:39:29;;;;;;;;;;;;;;;20.40;75.29;99376.25;5015517;28;881;-62
2022/07/08 18:41:56;;;;;;;;;;;;;;;20.36;75.32;99384.84;5015550;28;826;-62
2022/07/08 18:44:23;;;;;;;;;;;;;;;20.32;75.62;99391.91;5015339;28;1918;-62
2022/07/08 18:46:49;;;;;;;;;;;;;;;20.34;75.45;99389.41;5015696;28;831;-62
2022/07/08 18:49:15;;;;;;;;;;;;;;;20.37;75.21;99394.81;5015397;28;886;-62
2022/07/08 18:51:44;;;;;;;;;;;;;;;20.40;74.94;99393.88;4997739;28;1308;-62
2022/07/08 19:06:21;;;;;;;;;;;;;;;20.33;74.99;99408.28;5015062;28;629;-62
2022/07/08 19:08:48;;;;;;;;;;;;;;;20.33;75.05;99405.47;5015065;28;886;-62
2022/07/08 19:11:14;;;;;;;;;;;;;;;20.34;75.13;99397.81;5014930;28;803;-63
2022/07/08 19:13:41;;;;;;;;;;;;;;;20.33;75.10;99393.44;5014930;28;811;-62
2022/07/08 19:16:08;;;;;;;;;;;;;;;20.32;75.09;99391.91;5014841;28;819;-62
2022/07/08 19:18:34;;;;;;;;;;;;;;;20.33;74.89;99399.06;5014830;28;846;-62
2022/07/08 19:21:01;;;;;;;;;;;;;;;20.31;75.00;99395.97;5014798;28;878;-62
2022/07/08 19:23:28;;;;;;;;;;;;;;;20.27;75.04;99400.97;4996895;28;1919;-62
2022/07/08 19:25:55;;;;;;;;;;;;;;;20.23;75.09;99403.19;5014731;28;843;-62
2022/07/08 19:28:21;;;;;;;;;;;;;;;20.18;75.29;99405.44;5014709;28;823;-62
2022/07/08 19:30:48;;;;;;;;;;;;;;;20.14;75.51;99404.03;5014732;28;974;-62
2022/07/08 19:33:15;;;;;;;;;;;;;;;20.12;75.59;99407.34;5014762;28;831;-62
2022/07/08 19:47:44;;;;;;;;;;;;;;;20.28;76.11;99399.75;5012340;28;1425;-62
2022/07/08 19:50:11;;;;;;;;;;;;;;;20.26;76.30;99394.59;5012418;28;1460;-62
2022/07/08 19:52:37;;;;;;;;;;;;;;;20.23;76.43;99394.78;5014111;28;845;-62
2022/07/08 19:55:04;;;;;;;;;;;;;;;20.22;76.44;99405.22;4996581;28;1259;-62
2022/07/08 19:57:31;;;;;;;;;;;;;;;20.21;76.68;99403.69;5014138;28;823;-62
2022/07/08 19:59:57;;;;;;;;;;;;;;;20.21;76.87;99389.66;5013997;28;849;-62